Boneta, Utah
Current Conditions -  °F | °C
As of 3:15 PM on Friday 24 Oct 2014 (Local Time) from K36U Reporting Station
Clear Clear  
Wind Chill: 73°   Ceiling: Unl
Heat Index: 73°   Visibility: 10mi
Dew Point: 27°   Wind: 15mph
Humidity: 18%   Direction: 230°SW
Pressure: 30.19"   Gusts: 20mph
Location:  40.391°N, 110.479°W
Report Text: K36U 242115Z AUTO 23013G17KT 10SM CLR 23/M03 A3019 RMK AO2
Loading
Personal Weather Stations






























Interactive Weather Map
Tropical Storm Tracking
New forecast layout! Learn more

10-Day Weather Forecast

Advertisements
Track Severe Weather on mobile